sensor_id;sensor_type;location;lat;lon;timestamp;pressure;altitude;pressure_sealevel;temperature;humidity
9721;BME280;4899;42.644;23.366;2023-05-02T00:00:10;94580.19;;;12.49;100.00
9721;BME280;4899;42.644;23.366;2023-05-02T00:02:35;94585.81;;;12.51;100.00
9721;BME280;4899;42.644;23.366;2023-05-02T00:05:01;94587.94;;;12.49;100.00
9721;BME280;4899;42.644;23.366;2023-05-02T00:07:27;94580.06;;;12.37;100.00
9721;BME280;4899;42.644;23.366;2023-05-02T00:09:52;94588.41;;;12.43;100.00
9721;BME280;4899;42.644;23.366;2023-05-02T00:12:18;94580.06;;;12.37;100.00
9721;BME280;4899;42.644;23.366;2023-05-02T00:14:43;94578.56;;;12.36;100.00
9721;BME280;4899;42.644;23.366;2023-05-02T00:17:15;94585.97;;;12.38;100.00
9721;BME280;4899;42.644;23.366;2023-05-02T00:19:41;94585.41;;;12.32;100.00
9721;BME280;4899;42.644;23.366;2023-05-02T00:22:06;94588.16;;;12.27;100.00
9721;BME280;4899;42.644;23.366;2023-05-02T00:24:32;94591.03;;;12.25;100.00
9721;BME280;4899;42.644;23.366;2023-05-02T00:26:57;94593.47;;;12.22;100.00
9721;BME280;4899;42.644;23.366;2023-05-02T00:29:23;94592.72;;;12.21;100.00
9721;BME280;4899;42.644;23.366;2023-05-02T00:31:48;94586.19;;;12.24;100.00
9721;BME280;4899;42.644;23.366;2023-05-02T00:34:14;94586.94;;;12.24;100.00
9721;BME280;4899;42.644;23.366;2023-05-02T00:36:39;94597.53;;;12.31;100.00
9721;BME280;4899;42.644;23.366;2023-05-02T00:39:04;94605.09;;;12.37;100.00
9721;BME280;4899;42.644;23.366;2023-05-02T00:41:30;94604.97;;;12.33;100.00
9721;BME280;4899;42.644;23.366;2023-05-02T00:43:56;94610.88;;;12.33;100.00
9721;BME280;4899;42.644;23.366;2023-05-02T00:46:22;94603.66;;;12.18;100.00
9721;BME280;4899;42.644;23.366;2023-05-02T00:48:48;94612.59;;;12.21;100.00
9721;BME280;4899;42.644;23.366;2023-05-02T00:51:14;94608.66;;;12.15;100.00
9721;BME280;4899;42.644;23.366;2023-05-02T00:53:42;94600.16;;;12.06;100.00
9721;BME280;4899;42.644;23.366;2023-05-02T00:56:08;94605.94;;;12.02;100.00
9721;BME280;4899;42.644;23.366;2023-05-02T00:58:37;94601.84;;;12.01;100.00
9721;BME280;4899;42.644;23.366;2023-05-02T01:04:13;94603.53;;;11.97;100.00
9721;BME280;4899;42.644;23.366;2023-05-02T01:09:54;94602.13;;;12.09;100.00
9721;BME280;4899;42.644;23.366;2023-05-02T01:12:36;94606.22;;;12.10;100.00
9721;BME280;4899;42.644;23.366;2023-05-02T01:15:19;94608.19;;;12.13;100.00
9721;BME280;4899;42.644;23.366;2023-05-02T01:17:46;94615.78;;;12.09;100.00
9721;BME280;4899;42.644;23.366;2023-05-02T01:20:16;94604.25;;;12.07;100.00
9721;BME280;4899;42.644;23.366;2023-05-02T01:22:44;94608.81;;;12.10;100.00
9721;BME280;4899;42.644;23.366;2023-05-02T01:27:56;94596.25;;;11.99;100.00
9721;BME280;4899;42.644;23.366;2023-05-02T01:30:27;94594.13;;;11.84;100.00
9721;BME280;4899;42.644;23.366;2023-05-02T01:32:54;94600.03;;;11.76;100.00
9721;BME280;4899;42.644;23.366;2023-05-02T01:35:22;94598.66;;;11.70;100.00
9721;BME280;4899;42.644;23.366;2023-05-02T01:37:49;94590.31;;;11.64;100.00
9721;BME280;4899;42.644;23.366;2023-05-02T01:40:19;94608.66;;;11.63;100.00
9721;BME280;4899;42.644;23.366;2023-05-02T01:42:49;94610.31;;;11.59;100.00
9721;BME280;4899;42.644;23.366;2023-05-02T01:45:16;94613.06;;;11.54;100.00
9721;BME280;4899;42.644;23.366;2023-05-02T01:47:43;94610.94;;;11.47;100.00
9721;BME280;4899;42.644;23.366;2023-05-02T01:50:16;94613.06;;;11.45;100.00
9721;BME280;4899;42.644;23.366;2023-05-02T01:52:43;94612.41;;;11.39;100.00
9721;BME280;4899;42.644;23.366;2023-05-02T01:55:12;94603.47;;;11.28;100.00
9721;BME280;4899;42.644;23.366;2023-05-02T01:57:41;94613.78;;;11.28;100.00
9721;BME280;4899;42.644;23.366;2023-05-02T02:00:09;94599.53;;;11.22;100.00
9721;BME280;4899;42.644;23.366;2023-05-02T02:02:36;94583.34;;;11.22;100.00
9721;BME280;4899;42.644;23.366;2023-05-02T02:05:04;94594.53;;;11.26;100.00
9721;BME280;4899;42.644;23.366;2023-05-02T02:07:31;94586.66;;;11.22;100.00
9721;BME280;4899;42.644;23.366;2023-05-02T02:09:56;94600.31;;;11.23;100.00
9721;BME280;4899;42.644;23.366;2023-05-02T02:12:23;94608.31;;;11.21;100.00
9721;BME280;4899;42.644;23.366;2023-05-02T02:14:56;94596.94;;;11.14;100.00
9721;BME280;4899;42.644;23.366;2023-05-02T02:17:35;94603.44;;;11.11;100.00
9721;BME280;4899;42.644;23.366;2023-05-02T02:20:04;94596.31;;;10.99;100.00
9721;BME280;4899;42.644;23.366;2023-05-02T02:22:33;94612.06;;;10.98;100.00
9721;BME280;4899;42.644;23.366;2023-05-02T02:25:04;94607.22;;;10.96;100.00
9721;BME280;4899;42.644;23.366;2023-05-02T02:27:30;94602.19;;;10.91;100.00
9721;BME280;4899;42.644;23.366;2023-05-02T02:29:56;94592.91;;;10.82;100.00
9721;BME280;4899;42.644;23.366;2023-05-02T02:32:21;94604.28;;;10.81;100.00
9721;BME280;4899;42.644;23.366;2023-05-02T02:34:47;94595.94;;;10.75;100.00
9721;BME280;4899;42.644;23.366;2023-05-02T02:37:18;94603.94;;;10.73;100.00
9721;BME280;4899;42.644;23.366;2023-05-02T02:40:11;94602.44;;;10.72;100.00
9721;BME280;4899;42.644;23.366;2023-05-02T02:42:54;94610.00;;;10.69;100.00
9721;BME280;4899;42.644;23.366;2023-05-02T02:48:04;94610.09;;;10.64;100.00
9721;BME280;4899;42.644;23.366;2023-05-02T02:50:39;94602.97;;;10.61;100.00
9721;BME280;4899;42.644;23.366;2023-05-02T02:53:19;94609.34;;;10.63;100.00
9721;BME280;4899;42.644;23.366;2023-05-02T02:56:04;94602.53;;;10.59;100.00
9721;BME280;4899;42.644;23.366;2023-05-02T03:01:04;94615.09;;;10.60;100.00
9721;BME280;4899;42.644;23.366;2023-05-02T03:03:31;94606.91;;;10.58;100.00
9721;BME280;4899;42.644;23.366;2023-05-02T03:05:58;94601.91;;;10.53;100.00
9721;BME280;4899;42.644;23.366;2023-05-02T03:08:24;94604.16;;;10.46;100.00
9721;BME280;4899;42.644;23.366;2023-05-02T03:10:49;94619.31;;;10.56;100.00
9721;BME280;4899;42.644;23.366;2023-05-02T03:13:15;94625.22;;;10.57;100.00
9721;BME280;4899;42.644;23.366;2023-05-02T03:18:18;94623.25;;;10.54;100.00
9721;BME280;4899;42.644;23.366;2023-05-02T03:20:44;94630.53;;;10.60;100.00
9721;BME280;4899;42.644;23.366;2023-05-02T03:23:09;94622.78;;;10.52;100.00
9721;BME280;4899;42.644;23.366;2023-05-02T03:25:35;94635.34;;;10.53;100.00
9721;BME280;4899;42.644;23.366;2023-05-02T03:28:01;94643.69;;;10.59;100.00
9721;BME280;4899;42.644;23.366;2023-05-02T03:30:26;94631.38;;;10.47;100.00
9721;BME280;4899;42.644;23.366;2023-05-02T03:32:52;94643.22;;;10.57;100.00
9721;BME280;4899;42.644;23.366;2023-05-02T03:35:17;94647.78;;;10.60;100.00
9721;BME280;4899;42.644;23.366;2023-05-02T03:37:43;94654.13;;;10.62;100.00
9721;BME280;4899;42.644;23.366;2023-05-02T03:40:09;94635.22;;;10.58;100.00
9721;BME280;4899;42.644;23.366;2023-05-02T03:42:35;94631.25;;;10.52;100.00
9721;BME280;4899;42.644;23.366;2023-05-02T03:45:06;94641.53;;;10.52;100.00
9721;BME280;4899;42.644;23.366;2023-05-02T03:47:31;94643.69;;;10.59;100.00
9721;BME280;4899;42.644;23.366;2023-05-02T03:49:57;94635.19;;;10.50;100.00
9721;BME280;4899;42.644;23.366;2023-05-02T03:52:23;94648.41;;;10.65;100.00
9721;BME280;4899;42.644;23.366;2023-05-02T03:54:50;94650.50;;;10.63;100.00
9721;BME280;4899;42.644;23.366;2023-05-02T03:57:16;94650.09;;;10.70;100.00
9721;BME280;4899;42.644;23.366;2023-05-02T03:59:42;94642.25;;;10.75;100.00
9721;BME280;4899;42.644;23.366;2023-05-02T04:02:10;94637.69;;;10.72;100.00
9721;BME280;4899;42.644;23.366;2023-05-02T04:04:36;94648.03;;;10.81;100.00
9721;BME280;4899;42.644;23.366;2023-05-02T04:07:01;94645.75;;;10.88;100.00
9721;BME280;4899;42.644;23.366;2023-05-02T04:09:27;94642.44;;;10.87;100.00
9721;BME280;4899;42.644;23.366;2023-05-02T04:11:52;94644.59;;;10.94;100.00
9721;BME280;4899;42.644;23.366;2023-05-02T04:14:18;94650.69;;;11.06;100.00
9721;BME280;4899;42.644;23.366;2023-05-02T04:16:50;94641.00;;;11.12;100.00
9721;BME280;4899;42.644;23.366;2023-05-02T04:19:17;94634.34;;;11.11;100.00
9721;BME280;4899;42.644;23.366;2023-05-02T04:21:43;94649.84;;;11.28;100.00
9721;BME280;4899;42.644;23.366;2023-05-02T04:24:09;94644.09;;;11.31;100.00
9721;BME280;4899;42.644;23.366;2023-05-02T04:26:35;94650.28;;;11.39;100.00
9721;BME280;4899;42.644;23.366;2023-05-02T04:29:00;94638.50;;;11.55;100.00
9721;BME280;4899;42.644;23.366;2023-05-02T04:31:25;94654.13;;;11.59;100.00
9721;BME280;4899;42.644;23.366;2023-05-02T04:33:51;94655.22;;;11.66;100.00
9721;BME280;4899;42.644;23.366;2023-05-02T04:36:17;94652.31;;;11.68;100.00
9721;BME280;4899;42.644;23.366;2023-05-02T04:38:43;94657.34;;;11.82;100.00
9721;BME280;4899;42.644;23.366;2023-05-02T04:41:09;94659.78;;;11.87;100.00
9721;BME280;4899;42.644;23.366;2023-05-02T04:43:35;94662.66;;;11.85;100.00
9721;BME280;4899;42.644;23.366;2023-05-02T04:46:00;94666.47;;;11.96;100.00
9721;BME280;4899;42.644;23.366;2023-05-02T04:48:26;94666.47;;;11.96;100.00
9721;BME280;4899;42.644;23.366;2023-05-02T04:50:51;94668.75;;;11.98;100.00
9721;BME280;4899;42.644;23.366;2023-05-02T04:53:19;94664.78;;;12.09;100.00
9721;BME280;4899;42.644;23.366;2023-05-02T04:55:45;94672.97;;;12.20;100.00
9721;BME280;4899;42.644;23.366;2023-05-02T04:58:12;94666.31;;;12.19;100.00
9721;BME280;4899;42.644;23.366;2023-05-02T05:00:37;94673.56;;;12.34;100.00
9721;BME280;4899;42.644;23.366;2023-05-02T05:03:03;94675.97;;;12.39;100.00
9721;BME280;4899;42.644;23.366;2023-05-02T05:05:28;94678.84;;;12.46;100.00
9721;BME280;4899;42.644;23.366;2023-05-02T05:07:54;94669.25;;;12.55;100.00
9721;BME280;4899;42.644;23.366;2023-05-02T05:10:19;94669.25;;;12.55;100.00
9721;BME280;4899;42.644;23.366;2023-05-02T05:12:44;94671.22;;;12.67;100.00
9721;BME280;4899;42.644;23.366;2023-05-02T05:15:10;94665.31;;;12.67;100.00
9721;BME280;4899;42.644;23.366;2023-05-02T05:17:36;94667.28;;;12.70;100.00
9721;BME280;4899;42.644;23.366;2023-05-02T05:20:02;94673.59;;;12.81;100.00
9721;BME280;4899;42.644;23.366;2023-05-02T05:22:28;94675.56;;;12.84;100.00
9721;BME280;4899;42.644;23.366;2023-05-02T05:24:54;94676.94;;;12.90;100.00
9721;BME280;4899;42.644;23.366;2023-05-02T05:27:19;94679.50;;;12.90;100.00
9721;BME280;4899;42.644;23.366;2023-05-02T05:29:45;94686.47;;;12.98;100.00
9721;BME280;4899;42.644;23.366;2023-05-02T05:32:11;94685.34;;;13.08;100.00
9721;BME280;4899;42.644;23.366;2023-05-02T05:34:36;94681.69;;;13.09;100.00
9721;BME280;4899;42.644;23.366;2023-05-02T05:37:01;94689.09;;;12.81;100.00
9721;BME280;4899;42.644;23.366;2023-05-02T05:39:27;94675.19;;;12.65;100.00
9721;BME280;4899;42.644;23.366;2023-05-02T05:41:52;94684.09;;;13.22;100.00
9721;BME280;4899;42.644;23.366;2023-05-02T05:44:19;94686.00;;;13.34;100.00
9721;BME280;4899;42.644;23.366;2023-05-02T05:46:46;94703.00;;;13.44;100.00
9721;BME280;4899;42.644;23.366;2023-05-02T05:49:12;94694.75;;;13.50;100.00
9721;BME280;4899;42.644;23.366;2023-05-02T05:51:39;94686.06;;;13.55;100.00
9721;BME280;4899;42.644;23.366;2023-05-02T05:54:04;94692.06;;;13.68;100.00
9721;BME280;4899;42.644;23.366;2023-05-02T05:56:30;94679.47;;;13.66;100.00
9721;BME280;4899;42.644;23.366;2023-05-02T05:58:55;94694.72;;;13.80;100.00
9721;BME280;4899;42.644;23.366;2023-05-02T06:01:20;94683.06;;;13.74;100.00
9721;BME280;4899;42.644;23.366;2023-05-02T06:03:47;94702.81;;;13.99;100.00
9721;BME280;4899;42.644;23.366;2023-05-02T06:06:12;94687.47;;;13.94;100.00
9721;BME280;4899;42.644;23.366;2023-05-02T06:08:37;94701.41;;;14.02;100.00
9721;BME280;4899;42.644;23.366;2023-05-02T06:11:07;94700.59;;;14.10;100.00
9721;BME280;4899;42.644;23.366;2023-05-02T06:13:33;94710.56;;;14.20;100.00
9721;BME280;4899;42.644;23.366;2023-05-02T06:16:02;94707.78;;;14.25;100.00
9721;BME280;4899;42.644;23.366;2023-05-02T06:18:27;94693.00;;;14.26;100.00
9721;BME280;4899;42.644;23.366;2023-05-02T06:20:53;94694.88;;;14.37;100.00
9721;BME280;4899;42.644;23.366;2023-05-02T06:23:18;94682.72;;;14.38;100.00
9721;BME280;4899;42.644;23.366;2023-05-02T06:25:44;94694.97;;;14.50;99.24
9721;BME280;4899;42.644;23.366;2023-05-02T06:28:09;94700.16;;;14.62;97.75
9721;BME280;4899;42.644;23.366;2023-05-02T06:30:35;94687.22;;;14.62;95.95
9721;BME280;4899;42.644;23.366;2023-05-02T06:33:03;94693.63;;;14.76;95.61
9721;BME280;4899;42.644;23.366;2023-05-02T06:35:28;94696.34;;;14.92;94.12
9721;BME280;4899;42.644;23.366;2023-05-02T06:37:54;94697.97;;;14.97;92.15
9721;BME280;4899;42.644;23.366;2023-05-02T06:40:20;94699.06;;;15.08;90.88
9721;BME280;4899;42.644;23.366;2023-05-02T06:42:45;94694.44;;;15.14;89.92
9721;BME280;4899;42.644;23.366;2023-05-02T06:45:11;94703.84;;;15.18;88.91
9721;BME280;4899;42.644;23.366;2023-05-02T06:47:36;94697.34;;;15.24;88.26
9721;BME280;4899;42.644;23.366;2023-05-02T06:50:02;94699.81;;;15.33;86.83
9721;BME280;4899;42.644;23.366;2023-05-02T06:52:27;94702.66;;;15.40;84.92
9721;BME280;4899;42.644;23.366;2023-05-02T06:54:53;94682.34;;;15.42;83.25
9721;BME280;4899;42.644;23.366;2023-05-02T06:57:18;94668.31;;;15.43;82.44
9721;BME280;4899;42.644;23.366;2023-05-02T06:59:44;94693.16;;;15.68;80.77
9721;BME280;4899;42.644;23.366;2023-05-02T07:02:09;94688.38;;;15.71;77.34
9721;BME280;4899;42.644;23.366;2023-05-02T07:04:35;94688.91;;;15.76;76.44
9721;BME280;4899;42.644;23.366;2023-05-02T07:07:01;94685.66;;;15.79;75.90
9721;BME280;4899;42.644;23.366;2023-05-02T07:09:26;94686.41;;;15.80;74.50
9721;BME280;4899;42.644;23.366;2023-05-02T07:11:51;94682.63;;;15.77;72.80
9721;BME280;4899;42.644;23.366;2023-05-02T07:14:17;94692.00;;;15.94;72.23
9721;BME280;4899;42.644;23.366;2023-05-02T07:16:42;94695.88;;;16.00;71.50
9721;BME280;4899;42.644;23.366;2023-05-02T07:19:08;94696.28;;;16.14;71.64
9721;BME280;4899;42.644;23.366;2023-05-02T07:21:33;94698.06;;;16.26;69.23
9721;BME280;4899;42.644;23.366;2023-05-02T07:23:58;94684.75;;;16.27;69.10
9721;BME280;4899;42.644;23.366;2023-05-02T07:26:24;94703.31;;;16.42;66.88
9721;BME280;4899;42.644;23.366;2023-05-02T07:28:51;94699.81;;;16.50;65.61
9721;BME280;4899;42.644;23.366;2023-05-02T07:31:17;94700.41;;;16.59;66.22
9721;BME280;4899;42.644;23.366;2023-05-02T07:33:42;94706.25;;;16.68;65.79
9721;BME280;4899;42.644;23.366;2023-05-02T07:36:08;94698.72;;;16.79;65.18
9721;BME280;4899;42.644;23.366;2023-05-02T07:38:33;94701.06;;;16.84;64.08
9721;BME280;4899;42.644;23.366;2023-05-02T07:40:59;94688.69;;;16.93;62.93
9721;BME280;4899;42.644;23.366;2023-05-02T07:43:25;94693.88;;;17.09;62.96
9721;BME280;4899;42.644;23.366;2023-05-02T07:45:51;94702.84;;;17.27;61.80
9721;BME280;4899;42.644;23.366;2023-05-02T07:48:17;94707.97;;;17.39;61.38
9721;BME280;4899;42.644;23.366;2023-05-02T07:50:42;94710.38;;;17.48;60.45
9721;BME280;4899;42.644;23.366;2023-05-02T07:53:08;94699.91;;;17.44;59.42
9721;BME280;4899;42.644;23.366;2023-05-02T07:55:33;94702.38;;;17.57;58.93
9721;BME280;4899;42.644;23.366;2023-05-02T07:57:58;94697.19;;;17.72;59.08
9721;BME280;4899;42.644;23.366;2023-05-02T08:00:24;94692.19;;;17.83;58.63
9721;BME280;4899;42.644;23.366;2023-05-02T08:02:50;94685.09;;;17.99;57.92
9721;BME280;4899;42.644;23.366;2023-05-02T08:05:15;94681.75;;;17.99;56.39
9721;BME280;4899;42.644;23.366;2023-05-02T08:07:41;94696.59;;;17.98;55.56
9721;BME280;4899;42.644;23.366;2023-05-02T08:10:07;94684.34;;;17.99;55.64
9721;BME280;4899;42.644;23.366;2023-05-02T08:12:39;94687.84;;;18.06;55.49
9721;BME280;4899;42.644;23.366;2023-05-02T08:15:06;94702.66;;;18.22;55.81
9721;BME280;4899;42.644;23.366;2023-05-02T08:17:32;94662.03;;;18.17;55.10
9721;BME280;4899;42.644;23.366;2023-05-02T08:19:58;94687.03;;;18.41;55.07
9721;BME280;4899;42.644;23.366;2023-05-02T08:22:23;94697.88;;;18.62;54.43
9721;BME280;4899;42.644;23.366;2023-05-02T08:24:49;94687.66;;;18.77;53.30
9721;BME280;4899;42.644;23.366;2023-05-02T08:27:14;94689.31;;;18.85;54.18
9721;BME280;4899;42.644;23.366;2023-05-02T08:29:39;94690.75;;;19.05;53.69
9721;BME280;4899;42.644;23.366;2023-05-02T08:32:05;94702.25;;;19.27;53.04
9721;BME280;4899;42.644;23.366;2023-05-02T08:34:30;94697.69;;;19.20;52.35
9721;BME280;4899;42.644;23.366;2023-05-02T08:36:58;94699.03;;;19.33;52.20
9721;BME280;4899;42.644;23.366;2023-05-02T08:39:23;94692.81;;;19.42;52.01
9721;BME280;4899;42.644;23.366;2023-05-02T08:41:49;94698.63;;;19.58;51.43
9721;BME280;4899;42.644;23.366;2023-05-02T08:44:14;94694.72;;;19.71;51.70
9721;BME280;4899;42.644;23.366;2023-05-02T08:46:40;94704.31;;;19.90;50.88
9721;BME280;4899;42.644;23.366;2023-05-02T08:49:09;94701.47;;;20.02;50.52
9721;BME280;4899;42.644;23.366;2023-05-02T08:51:36;94701.47;;;20.02;49.62
9721;BME280;4899;42.644;23.366;2023-05-02T08:54:02;94702.84;;;20.22;49.46
9721;BME280;4899;42.644;23.366;2023-05-02T08:56:28;94690.66;;;20.34;49.15
9721;BME280;4899;42.644;23.366;2023-05-02T08:58:54;94688.91;;;20.41;48.62
9721;BME280;4899;42.644;23.366;2023-05-02T09:01:22;94689.91;;;20.67;47.56
9721;BME280;4899;42.644;23.366;2023-05-02T09:03:49;94692.34;;;20.86;47.60
9721;BME280;4899;42.644;23.366;2023-05-02T09:08:42;94674.53;;;21.06;46.82
9721;BME280;4899;42.644;23.366;2023-05-02T09:11:09;94688.00;;;21.04;45.97
9721;BME280;4899;42.644;23.366;2023-05-02T09:13:41;94686.06;;;20.98;46.54
9721;BME280;4899;42.644;23.366;2023-05-02T09:16:10;94684.69;;;21.07;45.81
9721;BME280;4899;42.644;23.366;2023-05-02T09:18:47;94686.63;;;21.17;46.07
9721;BME280;4899;42.644;23.366;2023-05-02T09:21:18;94672.59;;;20.92;43.17
9721;BME280;4899;42.644;23.366;2023-05-02T09:23:46;94685.75;;;21.06;45.43
9721;BME280;4899;42.644;23.366;2023-05-02T09:26:25;94660.63;;;20.91;43.69
9721;BME280;4899;42.644;23.366;2023-05-02T09:28:54;94675.91;;;20.89;45.59
9721;BME280;4899;42.644;23.366;2023-05-02T09:31:22;94674.53;;;21.06;44.86
9721;BME280;4899;42.644;23.366;2023-05-02T09:33:50;94676.97;;;21.25;45.39
9721;BME280;4899;42.644;23.366;2023-05-02T09:36:17;94676.72;;;21.41;45.20
9721;BME280;4899;42.644;23.366;2023-05-02T09:38:48;94673.41;;;21.55;44.34
9721;BME280;4899;42.644;23.366;2023-05-02T09:41:15;94668.91;;;21.48;44.25
9721;BME280;4899;42.644;23.366;2023-05-02T09:43:54;94671.88;;;21.46;41.77
9721;BME280;4899;42.644;23.366;2023-05-02T09:46:21;94670.41;;;21.49;43.64
9721;BME280;4899;42.644;23.366;2023-05-02T09:48:53;94658.09;;;21.53;42.84
9721;BME280;4899;42.644;23.366;2023-05-02T09:51:20;94670.50;;;21.67;43.47
9721;BME280;4899;42.644;23.366;2023-05-02T09:53:46;94666.03;;;21.71;43.59
9721;BME280;4899;42.644;23.366;2023-05-02T09:56:12;94660.50;;;21.83;43.49
9721;BME280;4899;42.644;23.366;2023-05-02T09:58:38;94667.75;;;22.07;43.56
9721;BME280;4899;42.644;23.366;2023-05-02T10:01:03;94649.81;;;22.20;43.03
9721;BME280;4899;42.644;23.366;2023-05-02T10:03:29;94651.28;;;22.14;42.28
9721;BME280;4899;42.644;23.366;2023-05-02T10:05:57;94660.34;;;22.34;42.21
9721;BME280;4899;42.644;23.366;2023-05-02T10:08:25;94652.50;;;22.45;41.64
9721;BME280;4899;42.644;23.366;2023-05-02T10:10:55;94643.09;;;22.26;40.32
9721;BME280;4899;42.644;23.366;2023-05-02T10:13:23;94654.69;;;22.25;41.99
9721;BME280;4899;42.644;23.366;2023-05-02T10:18:57;94650.25;;;22.44;40.92
9721;BME280;4899;42.644;23.366;2023-05-02T10:21:27;94649.16;;;22.66;41.76
9721;BME280;4899;42.644;23.366;2023-05-02T10:23:53;94639.44;;;22.66;41.29
9721;BME280;4899;42.644;23.366;2023-05-02T10:26:18;94652.16;;;22.75;40.63
9721;BME280;4899;42.644;23.366;2023-05-02T10:28:46;94643.59;;;22.96;40.39
9721;BME280;4899;42.644;23.366;2023-05-02T10:31:13;94607.56;;;22.71;40.04
9721;BME280;4899;42.644;23.366;2023-05-02T10:33:39;94643.22;;;22.97;39.91
9721;BME280;4899;42.644;23.366;2023-05-02T10:36:07;94638.34;;;23.14;39.83
9721;BME280;4899;42.644;23.366;2023-05-02T10:38:34;94638.31;;;23.39;39.30
9721;BME280;4899;42.644;23.366;2023-05-02T10:41:05;94619.94;;;23.39;37.90
9721;BME280;4899;42.644;23.366;2023-05-02T10:43:33;94640.53;;;23.51;38.84
9721;BME280;4899;42.644;23.366;2023-05-02T10:45:59;94630.34;;;23.85;38.40
9721;BME280;4899;42.644;23.366;2023-05-02T10:48:27;94626.56;;;23.93;38.01
9721;BME280;4899;42.644;23.366;2023-05-02T10:50:58;94626.06;;;24.30;37.62
9721;BME280;4899;42.644;23.366;2023-05-02T10:53:26;94625.38;;;24.74;37.41
9721;BME280;4899;42.644;23.366;2023-05-02T10:56:14;94602.38;;;25.30;34.40
9721;BME280;4899;42.644;23.366;2023-05-02T10:58:44;94603.31;;;26.15;35.09
9721;BME280;4899;42.644;23.366;2023-05-02T11:03:56;94600.47;;;27.73;34.34
9721;BME280;4899;42.644;23.366;2023-05-02T11:06:24;94596.25;;;27.56;33.97
9721;BME280;4899;42.644;23.366;2023-05-02T11:08:50;94596.31;;;27.52;34.06
9721;BME280;4899;42.644;23.366;2023-05-02T11:11:41;94570.63;;;27.53;30.89
9721;BME280;4899;42.644;23.366;2023-05-02T11:14:08;94566.00;;;27.37;33.17
9721;BME280;4899;42.644;23.366;2023-05-02T11:19:24;94584.78;;;28.38;32.86
9721;BME280;4899;42.644;23.366;2023-05-02T11:21:50;94576.78;;;28.91;32.04
9721;BME280;4899;42.644;23.366;2023-05-02T11:24:41;94551.56;;;28.86;29.47
9721;BME280;4899;42.644;23.366;2023-05-02T11:30:03;94571.91;;;30.18;30.99
9721;BME280;4899;42.644;23.366;2023-05-02T11:35:14;94547.88;;;30.59;28.75
9721;BME280;4899;42.644;23.366;2023-05-02T11:37:41;94557.59;;;30.15;30.23
9721;BME280;4899;42.644;23.366;2023-05-02T11:40:29;94529.63;;;29.85;27.89
9721;BME280;4899;42.644;23.366;2023-05-02T11:42:56;94549.28;;;30.39;30.24
9721;BME280;4899;42.644;23.366;2023-05-02T11:45:32;94526.19;;;30.86;27.83
9721;BME280;4899;42.644;23.366;2023-05-02T11:47:58;94522.75;;;31.64;28.90
9721;BME280;4899;42.644;23.366;2023-05-02T11:50:24;94517.16;;;31.93;28.10
9721;BME280;4899;42.644;23.366;2023-05-02T11:52:51;94517.50;;;32.04;28.31
9721;BME280;4899;42.644;23.366;2023-05-02T11:55:17;94517.03;;;32.28;27.76
9721;BME280;4899;42.644;23.366;2023-05-02T11:57:42;94505.50;;;32.31;27.70
9721;BME280;4899;42.644;23.366;2023-05-02T12:00:09;94511.03;;;32.64;27.82
9721;BME280;4899;42.644;23.366;2023-05-02T12:02:45;94471.34;;;33.21;25.02
9721;BME280;4899;42.644;23.366;2023-05-02T12:05:13;94476.09;;;33.35;26.11
9721;BME280;4899;42.644;23.366;2023-05-02T12:07:43;94462.81;;;32.98;25.37
9721;BME280;4899;42.644;23.366;2023-05-02T12:10:10;94485.00;;;32.95;26.58
9721;BME280;4899;42.644;23.366;2023-05-02T12:12:36;94486.47;;;33.24;26.62
9721;BME280;4899;42.644;23.366;2023-05-02T12:15:10;94487.34;;;33.48;25.63
9721;BME280;4899;42.644;23.366;2023-05-02T12:17:40;94464.69;;;33.34;25.28
9721;BME280;4899;42.644;23.366;2023-05-02T12:20:08;94471.59;;;33.59;26.46
9721;BME280;4899;42.644;23.366;2023-05-02T12:22:34;94468.66;;;34.00;26.06
9721;BME280;4899;42.644;23.366;2023-05-02T12:25:00;94470.56;;;34.32;25.51
9721;BME280;4899;42.644;23.366;2023-05-02T12:27:28;94462.38;;;34.60;24.97
9721;BME280;4899;42.644;23.366;2023-05-02T12:29:53;94446.22;;;34.78;24.74
9721;BME280;4899;42.644;23.366;2023-05-02T12:32:33;94415.81;;;35.20;21.89
9721;BME280;4899;42.644;23.366;2023-05-02T12:35:00;94433.06;;;35.63;24.37
9721;BME280;4899;42.644;23.366;2023-05-02T12:37:27;94427.44;;;35.75;24.06
9721;BME280;4899;42.644;23.366;2023-05-02T12:39:55;94415.25;;;36.10;23.43
9721;BME280;4899;42.644;23.366;2023-05-02T12:42:22;94404.22;;;36.89;22.86
9721;BME280;4899;42.644;23.366;2023-05-02T12:44:49;94389.81;;;36.86;22.67
9721;BME280;4899;42.644;23.366;2023-05-02T12:47:19;94387.72;;;37.22;22.58
9721;BME280;4899;42.644;23.366;2023-05-02T12:49:55;94362.03;;;37.84;19.75
9721;BME280;4899;42.644;23.366;2023-05-02T12:52:44;94357.13;;;37.77;19.39
9721;BME280;4899;42.644;23.366;2023-05-02T12:55:14;94355.41;;;37.79;20.05
9721;BME280;4899;42.644;23.366;2023-05-02T12:57:41;94363.00;;;37.44;21.65
9721;BME280;4899;42.644;23.366;2023-05-02T13:00:06;94370.63;;;37.19;21.61
9721;BME280;4899;42.644;23.366;2023-05-02T13:02:32;94361.38;;;36.94;21.47
9721;BME280;4899;42.644;23.366;2023-05-02T13:04:58;94370.91;;;36.49;21.59
9721;BME280;4899;42.644;23.366;2023-05-02T13:07:23;94376.84;;;36.59;21.66
9721;BME280;4899;42.644;23.366;2023-05-02T13:09:48;94375.53;;;36.28;21.92
9721;BME280;4899;42.644;23.366;2023-05-02T13:12:14;94367.63;;;36.19;21.77
9721;BME280;4899;42.644;23.366;2023-05-02T13:14:39;94379.94;;;36.11;21.72
9721;BME280;4899;42.644;23.366;2023-05-02T13:17:05;94380.66;;;35.91;22.11
9721;BME280;4899;42.644;23.366;2023-05-02T13:19:32;94383.91;;;35.81;22.33
9721;BME280;4899;42.644;23.366;2023-05-02T13:21:58;94386.84;;;35.97;21.76
9721;BME280;4899;42.644;23.366;2023-05-02T13:24:23;94384.91;;;36.39;21.84
9721;BME280;4899;42.644;23.366;2023-05-02T13:26:49;94370.88;;;36.70;21.54
9721;BME280;4899;42.644;23.366;2023-05-02T13:29:15;94376.56;;;37.03;21.11
9721;BME280;4899;42.644;23.366;2023-05-02T13:31:40;94370.13;;;37.21;21.41
9721;BME280;4899;42.644;23.366;2023-05-02T13:34:06;94369.75;;;37.34;20.73
9721;BME280;4899;42.644;23.366;2023-05-02T13:36:31;94359.31;;;37.41;20.63
9721;BME280;4899;42.644;23.366;2023-05-02T13:38:56;94361.16;;;37.61;20.70